createdAt,value
2023-05-24T00:02:16.127Z,5.00
2023-05-24T00:04:45.225Z,5.03
2023-05-24T00:07:12.602Z,4.13
2023-05-24T00:09:39.536Z,4.70
2023-05-24T00:12:06.616Z,4.32
2023-05-24T00:14:33.763Z,3.67
2023-05-24T00:17:00.879Z,4.55
2023-05-24T00:19:27.869Z,4.03
2023-05-24T00:21:55.660Z,4.97
2023-05-24T00:24:22.483Z,4.03
2023-05-24T00:26:49.566Z,5.28
2023-05-24T00:29:16.663Z,4.10
2023-05-24T00:31:43.543Z,4.47
2023-05-24T00:34:10.597Z,5.90
2023-05-24T00:36:38.386Z,5.47
2023-05-24T00:39:05.465Z,5.18
2023-05-24T00:41:32.453Z,5.35
2023-05-24T00:43:59.382Z,4.97
2023-05-24T00:46:32.271Z,4.43
2023-05-24T00:49:01.492Z,4.03
2023-05-24T00:51:28.744Z,4.43
2023-05-24T00:53:56.185Z,4.68
2023-05-24T00:56:23.611Z,4.78
2023-05-24T00:58:54.798Z,6.35
2023-05-24T01:01:25.811Z,4.15
2023-05-24T01:03:57.443Z,4.57
2023-05-24T01:06:27.112Z,5.85
2023-05-24T01:09:27.587Z,4.80
2023-05-24T01:12:03.716Z,4.82
2023-05-24T01:15:15.164Z,4.55
2023-05-24T01:17:46.275Z,5.38
2023-05-24T01:20:17.244Z,5.05
2023-05-24T01:23:07.538Z,4.32
2023-05-24T01:25:53.430Z,5.07
2023-05-24T01:28:21.832Z,5.00
2023-05-24T01:30:48.958Z,4.78
2023-05-24T01:33:16.077Z,5.13
2023-05-24T01:35:43.060Z,4.80
2023-05-24T01:38:13.191Z,4.97
2023-05-24T01:40:41.796Z,5.22
2023-05-24T01:43:36.771Z,5.43
2023-05-24T01:46:19.704Z,5.82
2023-05-24T01:49:09.223Z,6.75
2023-05-24T01:51:44.209Z,4.53
2023-05-24T01:54:13.740Z,5.38
2023-05-24T01:56:44.260Z,5.28
2023-05-24T02:01:38.946Z,5.57
2023-05-24T02:04:06.080Z,5.20
2023-05-24T02:06:32.917Z,4.90
2023-05-24T02:08:59.762Z,5.65
2023-05-24T02:11:27.686Z,6.50
2023-05-24T02:13:54.562Z,5.65
2023-05-24T02:16:23.876Z,4.97
2023-05-24T02:18:50.779Z,5.53
2023-05-24T02:21:17.628Z,5.55
2023-05-24T02:23:44.648Z,5.90
2023-05-24T02:26:12.704Z,5.80
2023-05-24T02:28:39.584Z,5.95
2023-05-24T02:31:06.721Z,5.38
2023-05-24T02:33:33.819Z,6.18
2023-05-24T02:36:01.234Z,6.43
2023-05-24T02:38:28.428Z,6.07
2023-05-24T02:40:55.540Z,5.85
2023-05-24T02:43:22.429Z,6.03
2023-05-24T02:45:49.278Z,5.78
2023-05-24T02:48:16.168Z,6.55
2023-05-24T02:50:43.197Z,6.85
2023-05-24T02:53:10.338Z,6.25
2023-05-24T02:55:37.950Z,6.20
2023-05-24T02:58:04.803Z,6.25
2023-05-24T03:00:33.225Z,7.75
2023-05-24T03:03:03.324Z,8.30
2023-05-24T03:05:30.431Z,8.38
2023-05-24T03:07:58.442Z,7.72
2023-05-24T03:10:25.330Z,6.60
2023-05-24T03:12:52.245Z,7.50
2023-05-24T03:15:19.959Z,7.72
2023-05-24T03:17:47.366Z,6.80
2023-05-24T03:20:15.974Z,6.57
2023-05-24T03:22:43.082Z,7.25
2023-05-24T03:25:10.252Z,6.65
2023-05-24T03:27:38.051Z,7.65
2023-05-24T03:30:06.724Z,7.43
2023-05-24T03:32:39.725Z,8.57
2023-05-24T03:35:06.933Z,7.63
2023-05-24T03:37:33.843Z,7.60
2023-05-24T03:40:00.958Z,7.28
2023-05-24T03:42:38.983Z,7.70
2023-05-24T03:45:07.908Z,7.60
2023-05-24T03:47:34.854Z,6.72
2023-05-24T03:50:02.851Z,7.43
2023-05-24T03:52:29.785Z,6.18
2023-05-24T03:54:56.953Z,6.50
2023-05-24T03:57:23.801Z,6.70
2023-05-24T03:59:50.692Z,7.65
2023-05-24T04:02:17.647Z,6.72
2023-05-24T04:04:45.723Z,6.35
2023-05-24T04:07:13.900Z,6.53
2023-05-24T04:09:41.284Z,8.07
2023-05-24T04:12:08.252Z,6.35
2023-05-24T04:14:35.334Z,7.38
2023-05-24T04:17:04.682Z,6.50
2023-05-24T04:19:32.183Z,5.43
2023-05-24T04:21:59.833Z,6.35
2023-05-24T04:24:26.707Z,5.50
2023-05-24T04:26:54.163Z,5.05
2023-05-24T04:29:21.263Z,4.95
2023-05-24T04:31:48.973Z,5.75
2023-05-24T04:34:16.139Z,4.40
2023-05-24T04:36:43.008Z,4.22
2023-05-24T04:39:11.507Z,4.28
2023-05-24T04:41:38.736Z,3.88
2023-05-24T04:44:05.705Z,3.80
2023-05-24T04:46:35.468Z,4.80
2023-05-24T04:49:02.553Z,4.22
2023-05-24T04:51:29.504Z,4.00
2023-05-24T04:53:56.354Z,4.13
2023-05-24T04:56:23.213Z,3.53
2023-05-24T04:58:50.084Z,3.88
2023-05-24T05:01:17.018Z,4.55
2023-05-24T05:03:46.023Z,3.28
2023-05-24T05:06:13.742Z,4.53
2023-05-24T05:08:40.606Z,4.70
2023-05-24T05:11:07.708Z,3.50
2023-05-24T05:13:34.559Z,4.30
2023-05-24T05:16:02.231Z,3.97
2023-05-24T05:18:29.056Z,4.38
2023-05-24T05:20:55.968Z,3.33
2023-05-24T05:23:22.944Z,3.28
2023-05-24T05:25:49.887Z,3.08
2023-05-24T05:28:17.147Z,3.13
2023-05-24T05:30:44.099Z,3.50
2023-05-24T05:33:11.132Z,4.50
2023-05-24T05:35:38.228Z,3.95
2023-05-24T05:38:05.089Z,3.20
2023-05-24T05:40:32.018Z,4.40
2023-05-24T05:42:58.908Z,3.78
2023-05-24T05:45:25.978Z,3.67
2023-05-24T05:47:52.948Z,4.85
2023-05-24T05:50:19.856Z,3.72
2023-05-24T05:52:46.686Z,3.42
2023-05-24T05:55:13.547Z,4.22
2023-05-24T05:57:40.890Z,3.30
2023-05-24T06:00:08.386Z,3.38
2023-05-24T06:02:41.501Z,3.50
2023-05-24T06:05:09.070Z,4.82
2023-05-24T06:07:37.504Z,4.03
2023-05-24T06:10:04.747Z,3.00
2023-05-24T06:12:31.769Z,3.60
2023-05-24T06:14:59.566Z,3.25
2023-05-24T06:17:28.089Z,3.35
2023-05-24T06:19:55.980Z,4.00
2023-05-24T06:22:23.068Z,3.40
2023-05-24T06:24:49.911Z,4.03
2023-05-24T06:27:16.773Z,3.70
2023-05-24T06:29:43.708Z,3.50
2023-05-24T06:32:10.562Z,3.42
2023-05-24T06:34:37.454Z,3.28
2023-05-24T06:37:04.557Z,3.80
2023-05-24T06:39:31.437Z,4.07
2023-05-24T06:41:58.313Z,3.58
2023-05-24T06:44:32.112Z,3.15
2023-05-24T06:46:59.324Z,3.78
2023-05-24T06:49:26.444Z,3.55
2023-05-24T06:51:53.391Z,3.00
2023-05-24T06:54:20.729Z,4.00
2023-05-24T06:56:48.001Z,2.95
2023-05-24T06:59:14.888Z,3.55
2023-05-24T07:01:43.115Z,2.55
2023-05-24T07:04:10.169Z,3.50
2023-05-24T07:06:39.929Z,4.05
2023-05-24T07:09:06.940Z,3.85
2023-05-24T07:11:33.872Z,2.95
2023-05-24T07:14:00.849Z,3.40
2023-05-24T07:16:27.718Z,3.25
2023-05-24T07:18:55.679Z,4.22
2023-05-24T07:21:22.691Z,4.90
2023-05-24T07:23:51.661Z,4.72
2023-05-24T07:26:18.612Z,3.85
2023-05-24T07:28:45.917Z,3.83
2023-05-24T07:31:13.372Z,3.83
2023-05-24T07:33:40.518Z,3.58
2023-05-24T07:36:08.488Z,3.25
2023-05-24T07:38:36.188Z,3.90
2023-05-24T07:41:04.726Z,4.13
2023-05-24T07:43:31.630Z,2.85
2023-05-24T07:45:58.617Z,2.60
2023-05-24T07:48:25.954Z,3.20
2023-05-24T07:50:52.906Z,3.65
2023-05-24T07:53:20.062Z,4.13
2023-05-24T07:55:47.027Z,3.25
2023-05-24T07:58:13.888Z,3.80
2023-05-24T08:00:41.470Z,3.63
2023-05-24T08:03:08.947Z,3.28
2023-05-24T08:05:35.945Z,3.33
2023-05-24T08:08:02.903Z,3.55
2023-05-24T08:10:29.763Z,3.65
2023-05-24T08:12:56.829Z,3.92
2023-05-24T08:15:23.718Z,4.38
2023-05-24T08:17:50.577Z,3.58
2023-05-24T08:20:17.890Z,4.10
2023-05-24T08:22:44.886Z,3.72
2023-05-24T08:25:12.007Z,3.40
2023-05-24T08:27:39.028Z,3.17
2023-05-24T08:30:07.329Z,3.05
2023-05-24T08:32:34.381Z,4.40
2023-05-24T08:35:18.196Z,4.07
2023-05-24T08:37:47.389Z,3.40
2023-05-24T08:40:14.450Z,3.30
2023-05-24T08:42:41.745Z,3.60
2023-05-24T08:45:11.640Z,3.15
2023-05-24T08:47:39.531Z,3.50
2023-05-24T08:50:07.348Z,3.90
2023-05-24T08:52:35.626Z,3.15
2023-05-24T08:55:05.173Z,3.13
2023-05-24T08:57:34.695Z,3.42
2023-05-24T09:00:02.009Z,3.03
2023-05-24T09:02:30.086Z,2.70
2023-05-24T09:04:58.527Z,2.72
2023-05-24T09:07:26.471Z,3.30
2023-05-24T09:10:06.845Z,3.13
2023-05-24T09:15:07.867Z,3.30
2023-05-24T09:17:36.804Z,2.67
2023-05-24T09:20:07.229Z,2.80
2023-05-24T09:22:35.797Z,3.22
2023-05-24T09:25:05.986Z,3.72
2023-05-24T09:27:35.035Z,3.53
2023-05-24T09:30:04.833Z,2.90
2023-05-24T09:32:31.763Z,3.65
2023-05-24T09:35:00.125Z,3.50
2023-05-24T09:37:32.369Z,2.83
2023-05-24T09:40:00.065Z,2.80
2023-05-24T09:42:31.147Z,4.03
2023-05-24T09:45:09.567Z,3.13
2023-05-24T09:47:38.569Z,3.13
2023-05-24T09:50:12.881Z,3.40
2023-05-24T09:52:41.063Z,3.85
2023-05-24T09:55:18.877Z,3.03
2023-05-24T09:58:01.602Z,3.35
2023-05-24T10:00:28.660Z,2.78
2023-05-24T10:03:03.007Z,2.70
2023-05-24T10:05:31.214Z,2.38
2023-05-24T10:07:58.845Z,3.13
2023-05-24T10:10:29.140Z,3.30
2023-05-24T10:12:57.234Z,3.03
2023-05-24T10:15:25.176Z,3.15
2023-05-24T10:17:52.734Z,3.25
2023-05-24T10:20:19.888Z,2.60
2023-05-24T10:22:50.635Z,3.13
2023-05-24T10:25:23.442Z,3.65
2023-05-24T10:27:52.754Z,3.70
2023-05-24T10:30:19.607Z,3.17
2023-05-24T10:32:48.254Z,3.22
2023-05-24T10:35:18.178Z,2.40
2023-05-24T10:37:47.622Z,3.40
2023-05-24T10:40:20.081Z,2.63
2023-05-24T10:42:47.839Z,2.85
2023-05-24T10:45:32.795Z,2.78
2023-05-24T10:48:10.102Z,2.72
2023-05-24T10:50:37.513Z,3.97
2023-05-24T10:53:22.603Z,3.75
2023-05-24T10:56:00.165Z,3.33
2023-05-24T10:58:59.310Z,3.83
2023-05-24T11:01:32.164Z,3.53
2023-05-24T11:04:15.777Z,3.00
2023-05-24T11:07:03.466Z,3.00
2023-05-24T11:09:30.864Z,3.33
2023-05-24T11:12:04.044Z,3.05
2023-05-24T11:14:32.291Z,3.55
2023-05-24T11:17:02.301Z,3.42
2023-05-24T11:19:37.367Z,2.95
2023-05-24T11:22:07.623Z,3.83
2023-05-24T11:24:35.275Z,3.10
2023-05-24T11:27:02.651Z,3.42
2023-05-24T11:29:30.661Z,3.47
2023-05-24T11:32:05.643Z,3.00
2023-05-24T11:34:33.851Z,2.63
2023-05-24T11:37:02.081Z,3.20
2023-05-24T11:39:37.988Z,3.08
2023-05-24T11:42:06.604Z,2.92
2023-05-24T11:44:35.275Z,3.03
2023-05-24T11:47:03.490Z,3.28
2023-05-24T11:49:30.470Z,3.28
2023-05-24T11:51:59.463Z,4.03
2023-05-24T11:54:28.285Z,3.15
2023-05-24T11:56:55.458Z,3.90
2023-05-24T11:59:27.220Z,3.63
2023-05-24T12:02:02.664Z,3.20
2023-05-24T12:04:30.419Z,3.63
2023-05-24T12:06:58.052Z,3.15
2023-05-24T12:09:25.489Z,3.28
2023-05-24T12:11:53.635Z,3.45
2023-05-24T12:14:24.349Z,2.67
2023-05-24T12:16:54.104Z,3.58
2023-05-24T12:24:24.351Z,3.53
2023-05-24T12:26:51.493Z,3.00
2023-05-24T12:29:19.730Z,2.63
2023-05-24T12:31:49.933Z,2.78
2023-05-24T12:36:46.533Z,3.33
2023-05-24T12:39:20.715Z,3.33
2023-05-24T12:41:54.560Z,2.78
2023-05-24T12:44:26.995Z,2.58
2023-05-24T12:46:55.206Z,2.40
2023-05-24T12:49:23.474Z,3.28
2023-05-24T12:51:51.320Z,3.65
2023-05-24T12:54:28.557Z,2.60
2023-05-24T12:56:57.468Z,2.53
2023-05-24T12:59:26.225Z,3.33
2023-05-24T13:01:53.631Z,4.25
2023-05-24T13:04:22.267Z,2.13
2023-05-24T13:06:49.475Z,3.70
2023-05-24T13:09:19.084Z,2.30
2023-05-24T13:11:46.625Z,4.28
2023-05-24T13:14:15.524Z,2.92
2023-05-24T13:16:42.823Z,2.90
2023-05-24T13:19:10.378Z,2.42
2023-05-24T13:21:38.139Z,3.40
2023-05-24T13:24:06.494Z,2.70
2023-05-24T13:26:38.126Z,2.58
2023-05-24T13:31:41.079Z,3.17
2023-05-24T13:34:09.176Z,3.22
2023-05-24T13:36:38.022Z,3.03
2023-05-24T13:41:35.627Z,3.10
2023-05-24T13:44:02.716Z,3.25
2023-05-24T13:46:29.813Z,3.08
2023-05-24T13:48:57.055Z,3.03
2023-05-24T13:51:24.350Z,2.78
2023-05-24T13:53:51.330Z,3.90
2023-05-24T13:56:18.713Z,3.97
2023-05-24T13:58:45.892Z,4.78
2023-05-24T14:01:12.862Z,3.10
2023-05-24T14:03:42.515Z,3.40
2023-05-24T14:06:09.753Z,2.85
2023-05-24T14:08:37.211Z,2.80
2023-05-24T14:11:04.105Z,3.70
2023-05-24T14:16:00.980Z,3.00
2023-05-24T14:18:27.914Z,3.65
2023-05-24T14:20:54.793Z,3.20
2023-05-24T14:23:21.705Z,3.92
2023-05-24T14:25:48.590Z,3.13
2023-05-24T14:28:15.649Z,2.65
2023-05-24T14:30:42.558Z,2.90
2023-05-24T14:33:11.554Z,3.15
2023-05-24T14:35:39.914Z,4.28
2023-05-24T14:38:09.427Z,2.85
2023-05-24T14:40:37.801Z,3.15
2023-05-24T14:43:06.242Z,2.80
2023-05-24T14:45:33.742Z,2.25
2023-05-24T14:48:01.210Z,4.93
2023-05-24T14:50:28.161Z,4.70
2023-05-24T14:52:55.740Z,3.58
2023-05-24T14:55:22.982Z,3.92
2023-05-24T14:57:50.069Z,3.83
2023-05-24T15:00:20.611Z,3.70
2023-05-24T15:02:49.296Z,3.30
2023-05-24T15:05:16.794Z,3.15
2023-05-24T15:07:43.637Z,3.38
2023-05-24T15:10:11.138Z,4.13
2023-05-24T15:12:38.142Z,3.17
2023-05-24T15:15:06.761Z,3.17
2023-05-24T15:17:33.816Z,2.63
2023-05-24T15:20:01.036Z,1.90
2023-05-24T15:22:27.933Z,2.97
2023-05-24T15:24:54.794Z,3.38
2023-05-24T15:27:21.607Z,3.45
2023-05-24T15:29:48.560Z,3.35
2023-05-24T15:32:15.633Z,3.00
2023-05-24T15:34:42.512Z,4.20
2023-05-24T15:37:09.361Z,2.30
2023-05-24T15:39:36.932Z,3.33
2023-05-24T15:42:03.928Z,2.80
2023-05-24T15:44:30.966Z,2.28
2023-05-24T15:46:57.939Z,2.50
2023-05-24T15:49:25.642Z,2.95
2023-05-24T15:54:22.386Z,2.60
2023-05-24T15:56:50.022Z,2.63
2023-05-24T15:59:16.840Z,2.20
2023-05-24T16:01:43.834Z,2.13
2023-05-24T16:04:10.825Z,2.67
2023-05-24T16:06:38.233Z,2.40
2023-05-24T16:09:07.025Z,3.45
2023-05-24T16:11:33.923Z,2.50
2023-05-24T16:14:00.838Z,2.80
2023-05-24T16:16:29.002Z,2.30
2023-05-24T16:18:55.992Z,2.30
2023-05-24T16:21:24.388Z,3.05
2023-05-24T16:23:51.366Z,3.30
2023-05-24T16:26:18.318Z,1.73
2023-05-24T16:28:45.605Z,2.50
2023-05-24T16:31:12.661Z,2.05
2023-05-24T16:33:40.118Z,2.55
2023-05-24T16:36:07.594Z,1.75
2023-05-24T16:38:34.546Z,2.50
2023-05-24T16:41:01.410Z,2.50
2023-05-24T16:43:28.362Z,2.30
2023-05-24T16:45:55.818Z,2.17
2023-05-24T16:48:28.259Z,2.17
2023-05-24T16:50:56.770Z,1.88
2023-05-24T16:53:26.131Z,2.42
2023-05-24T16:55:57.202Z,2.25
2023-05-24T16:58:25.541Z,2.50
2023-05-24T17:00:54.435Z,2.50
2023-05-24T17:03:28.678Z,2.27
2023-05-24T17:05:59.412Z,3.13
2023-05-24T17:08:28.376Z,3.13
2023-05-24T17:10:59.039Z,2.78
2023-05-24T17:13:29.806Z,2.40
2023-05-24T17:15:57.547Z,1.98
2023-05-24T17:18:29.284Z,2.70
2023-05-24T17:21:01.466Z,2.58
2023-05-24T17:23:33.148Z,1.80
2023-05-24T17:26:02.785Z,3.47
2023-05-24T17:28:30.570Z,3.13
2023-05-24T17:30:58.738Z,2.35
2023-05-24T17:33:28.039Z,3.10
2023-05-24T17:36:00.903Z,1.73
2023-05-24T17:38:28.634Z,3.38
2023-05-24T17:40:59.495Z,3.63
2023-05-24T17:43:32.681Z,2.08
2023-05-24T17:46:06.509Z,2.25
2023-05-24T17:48:36.279Z,2.25
2023-05-24T17:51:06.468Z,2.63
2023-05-24T17:56:02.747Z,2.75
2023-05-24T17:58:36.349Z,2.60
2023-05-24T18:01:08.246Z,2.47
2023-05-24T18:03:39.133Z,2.45
2023-05-24T18:06:07.463Z,3.20
2023-05-24T18:08:37.294Z,2.50
2023-05-24T18:11:08.491Z,2.83
2023-05-24T18:13:37.265Z,3.42
2023-05-24T18:16:04.411Z,3.22
2023-05-24T18:18:31.502Z,2.63
2023-05-24T18:20:58.478Z,2.38
2023-05-24T18:23:25.936Z,2.80
2023-05-24T18:26:01.986Z,2.78
2023-05-24T18:28:30.109Z,2.42
2023-05-24T18:30:56.980Z,2.53
2023-05-24T18:33:24.412Z,2.47
2023-05-24T18:35:51.428Z,3.33
2023-05-24T18:38:18.325Z,2.58
2023-05-24T18:40:45.179Z,2.03
2023-05-24T18:43:12.658Z,3.22
2023-05-24T18:45:39.566Z,2.55
2023-05-24T18:48:06.770Z,2.30
2023-05-24T18:50:33.929Z,2.85
2023-05-24T18:53:01.351Z,3.20
2023-05-24T18:55:28.517Z,3.00
2023-05-24T18:57:55.460Z,2.72
2023-05-24T19:00:25.348Z,2.88
2023-05-24T19:02:52.367Z,2.78
2023-05-24T19:05:20.110Z,2.95
2023-05-24T19:07:47.257Z,2.72
2023-05-24T19:10:14.289Z,3.28
2023-05-24T19:12:41.282Z,2.88
2023-05-24T19:15:08.602Z,2.50
2023-05-24T19:17:35.649Z,2.90
2023-05-24T19:20:02.935Z,3.55
2023-05-24T19:22:29.947Z,3.15
2023-05-24T19:24:57.172Z,2.92
2023-05-24T19:27:24.641Z,2.58
2023-05-24T19:29:51.738Z,3.03
2023-05-24T19:32:20.324Z,3.00
2023-05-24T19:34:47.550Z,3.30
2023-05-24T19:37:15.734Z,3.58
2023-05-24T19:39:42.666Z,4.25
2023-05-24T19:42:10.006Z,3.35
2023-05-24T19:44:36.835Z,3.83
2023-05-24T19:47:03.978Z,3.50
2023-05-24T19:49:30.905Z,3.65
2023-05-24T19:51:57.701Z,3.78
2023-05-24T19:54:24.558Z,3.70
2023-05-24T19:56:52.064Z,4.72
2023-05-24T19:59:19.187Z,4.18
2023-05-24T20:01:46.211Z,3.58
2023-05-24T20:04:13.373Z,3.90
2023-05-24T20:06:40.716Z,4.25
2023-05-24T20:09:07.711Z,3.88
2023-05-24T20:11:34.962Z,3.83
2023-05-24T20:14:02.287Z,3.75
2023-05-24T20:16:29.947Z,4.13
2023-05-24T20:18:56.802Z,4.13
2023-05-24T20:21:23.738Z,4.90
2023-05-24T20:23:57.681Z,4.25
2023-05-24T20:26:25.652Z,5.05
2023-05-24T20:28:52.643Z,4.28
2023-05-24T20:31:19.748Z,4.60
2023-05-24T20:33:46.593Z,4.38
2023-05-24T20:36:15.104Z,4.25
2023-05-24T20:38:42.144Z,4.43
2023-05-24T20:41:09.067Z,4.68
2023-05-24T20:43:35.927Z,5.40
2023-05-24T20:46:03.181Z,4.45
2023-05-24T20:48:30.112Z,4.78
2023-05-24T20:50:57.427Z,4.95
2023-05-24T20:53:24.308Z,5.00
2023-05-24T20:55:51.183Z,4.30
2023-05-24T20:58:18.175Z,4.60
2023-05-24T21:00:45.750Z,5.53
2023-05-24T21:03:12.968Z,4.50
2023-05-24T21:05:40.287Z,4.90
2023-05-24T21:08:07.418Z,4.88
2023-05-24T21:10:34.310Z,5.80
2023-05-24T21:13:01.232Z,4.60
2023-05-24T21:15:28.085Z,5.65
2023-05-24T21:17:55.104Z,5.13
2023-05-24T21:20:22.175Z,5.60
2023-05-24T21:22:49.223Z,4.80
2023-05-24T21:25:16.190Z,5.05
2023-05-24T21:27:43.061Z,4.82
2023-05-24T21:30:10.414Z,4.95
2023-05-24T21:32:37.353Z,4.88
2023-05-24T21:35:04.565Z,4.85
2023-05-24T21:37:31.455Z,4.53
2023-05-24T21:39:58.342Z,5.60
2023-05-24T21:42:25.273Z,5.10
2023-05-24T21:44:52.099Z,4.65
2023-05-24T21:47:19.029Z,4.68
2023-05-24T21:49:45.875Z,4.80
2023-05-24T21:52:12.711Z,4.50
2023-05-24T21:54:39.538Z,4.22
2023-05-24T21:57:07.251Z,4.88
2023-05-24T21:59:34.237Z,4.45
2023-05-24T22:02:01.236Z,4.72
2023-05-24T22:04:28.326Z,4.00
2023-05-24T22:06:55.193Z,5.13
2023-05-24T22:09:22.217Z,5.05
2023-05-24T22:11:49.084Z,5.28
2023-05-24T22:14:16.188Z,4.35
2023-05-24T22:16:43.237Z,3.85
2023-05-24T22:19:12.142Z,4.75
2023-05-24T22:21:42.958Z,4.60
2023-05-24T22:24:10.300Z,5.45
2023-05-24T22:26:37.289Z,4.50
2023-05-24T22:29:04.411Z,5.78
2023-05-24T22:31:33.560Z,4.85
2023-05-24T22:34:03.853Z,4.90
2023-05-24T22:36:35.366Z,4.28
2023-05-24T22:39:02.441Z,4.50
2023-05-24T22:41:29.349Z,4.93
2023-05-24T22:43:56.988Z,5.53
2023-05-24T22:46:24.693Z,4.40
2023-05-24T22:48:52.529Z,4.28
2023-05-24T22:51:22.678Z,4.63
2023-05-24T22:53:49.567Z,5.03
2023-05-24T22:56:17.915Z,5.22
2023-05-24T22:58:44.908Z,4.38
2023-05-24T23:01:11.898Z,3.97
2023-05-24T23:03:38.755Z,5.25
2023-05-24T23:06:05.813Z,4.55
2023-05-24T23:08:33.295Z,3.88
2023-05-24T23:11:00.651Z,5.15
2023-05-24T23:13:35.931Z,4.82
2023-05-24T23:16:03.535Z,4.60
2023-05-24T23:18:32.340Z,4.90
2023-05-24T23:21:00.895Z,4.88
2023-05-24T23:23:27.773Z,4.75
2023-05-24T23:25:54.593Z,5.15
2023-05-24T23:28:21.466Z,4.88
2023-05-24T23:30:48.356Z,4.53
2023-05-24T23:33:15.211Z,5.65
2023-05-24T23:35:42.327Z,6.05
2023-05-24T23:38:09.294Z,4.40
2023-05-24T23:40:36.660Z,5.45
2023-05-24T23:43:04.152Z,5.93
2023-05-24T23:45:31.435Z,4.60
2023-05-24T23:47:58.868Z,5.90
2023-05-24T23:50:27.327Z,5.80
2023-05-24T23:52:54.936Z,5.13
2023-05-24T23:55:22.793Z,4.78
2023-05-24T23:57:50.191Z,5.93
